Time;durP1;ratioP1;P1;durP2;ratioP2;P2;SDS_P1;SDS_P2;PMS_P1;PMS_P2;Temp;Humidity;BMP_temperature;BMP_pressure;BME280_temperature;BME280_humidity;BME280_pressure;Samples;Min_cycle;Max_cycle;Signal;HPM_P1;HPM_P2
2022/03/21 00:00:07;;;;;;;52.27;16.97;;;0.70;1.00;;;;;;4334260;28;656365;-68
2022/03/21 00:02:57;;;;;;;52.83;17.23;;;0.60;1.00;;;;;;4347042;28;656649;-68
2022/03/21 00:05:46;;;;;;;51.70;18.10;;;0.50;1.00;;;;;;4345748;28;657343;-68
2022/03/21 00:08:33;;;;;;;45.03;16.77;;;0.40;1.00;;;;;;4357042;28;656430;-68
2022/03/21 00:11:21;;;;;;;45.17;16.33;;;0.30;1.00;;;;;;4322803;28;656395;-68
2022/03/21 00:14:10;;;;;;;38.70;15.67;;;0.30;1.00;;;;;;4352664;28;657911;-68
2022/03/21 00:16:58;;;;;;;47.40;16.85;;;0.30;1.00;;;;;;4326579;28;657634;-67
2022/03/21 00:19:48;;;;;;;37.47;15.43;;;0.20;1.00;;;;;;4331117;28;656732;-68
2022/03/21 00:22:36;;;;;;;40.50;15.57;;;0.10;1.00;;;;;;4322133;28;656550;-68
2022/03/21 00:25:24;;;;;;;37.47;14.68;;;0.10;1.00;;;;;;4356177;28;657876;-68
2022/03/21 00:28:11;;;;;;;38.13;14.77;;;0.00;1.00;;;;;;4330768;28;656401;-68
2022/03/21 00:30:59;;;;;;;41.20;15.00;;;0.00;1.00;;;;;;4350153;28;657014;-68
2022/03/21 00:33:46;;;;;;;42.07;15.97;;;-0.10;1.00;;;;;;4332727;28;656199;-68
2022/03/21 00:36:36;;;;;;;38.70;15.43;;;-0.10;1.00;;;;;;4346953;28;658910;-68
2022/03/21 00:39:23;;;;;;;41.27;14.87;;;-0.20;1.00;;;;;;4327950;28;658355;-67
2022/03/21 00:42:11;;;;;;;43.00;15.37;;;-0.30;1.00;;;;;;4335245;28;657593;-68
2022/03/21 00:44:58;;;;;;;36.07;14.30;;;-0.40;1.00;;;;;;4351794;28;657903;-68
2022/03/21 00:47:46;;;;;;;39.63;15.33;;;-0.40;1.00;;;;;;4329488;28;657470;-67
2022/03/21 00:50:34;;;;;;;39.50;14.93;;;-0.60;1.00;;;;;;4362019;28;659178;-67
2022/03/21 00:53:23;;;;;;;36.53;14.45;;;-0.60;1.00;;;;;;4331884;28;657805;-67
2022/03/21 00:56:10;;;;;;;37.27;14.93;;;-0.70;1.00;;;;;;4330484;28;657780;-67
2022/03/21 00:58:59;;;;;;;36.07;13.60;;;-0.70;1.00;;;;;;4344800;28;658389;-67
2022/03/21 01:01:47;;;;;;;38.90;15.23;;;-0.70;1.00;;;;;;4329058;28;657613;-67
2022/03/21 01:04:34;;;;;;;35.87;14.17;;;-0.80;1.00;;;;;;4355704;28;657576;-67
2022/03/21 01:07:22;;;;;;;35.13;13.30;;;-0.90;1.00;;;;;;4325615;28;658537;-67
2022/03/21 01:10:13;;;;;;;32.95;13.55;;;-0.90;1.00;;;;;;4350899;28;658280;-67
2022/03/21 01:13:01;;;;;;;33.00;13.37;;;-0.90;1.00;;;;;;4296566;28;659299;-67
2022/03/21 01:15:48;;;;;;;33.83;12.93;;;-0.80;1.00;;;;;;4353159;28;657868;-67
2022/03/21 01:18:36;;;;;;;30.60;12.87;;;-0.90;1.00;;;;;;4331320;28;657372;-67
2022/03/21 01:21:23;;;;;;;45.47;13.60;;;-0.90;1.00;;;;;;4354595;28;658236;-67
2022/03/21 01:24:11;;;;;;;31.53;13.90;;;-0.90;1.00;;;;;;4334771;28;657958;-67
2022/03/21 01:27:00;;;;;;;28.77;13.00;;;-0.90;1.00;;;;;;4350159;28;658862;-67
2022/03/21 01:29:47;;;;;;;32.27;13.37;;;-1.00;1.00;;;;;;4323237;28;658484;-67
2022/03/21 01:32:35;;;;;;;34.65;12.88;;;-1.00;1.00;;;;;;4359008;28;659320;-67
2022/03/21 01:35:22;;;;;;;38.50;13.10;;;-1.00;1.00;;;;;;4331020;28;658667;-67
2022/03/21 01:38:10;;;;;;;32.40;13.40;;;-1.10;1.00;;;;;;4347571;28;657162;-67
2022/03/21 01:40:58;;;;;;;28.93;13.07;;;-1.10;1.00;;;;;;4344405;28;659022;-67
2022/03/21 01:44:04;;;;;;;29.50;13.00;;;-1.10;1.00;;;;;;4331765;28;657449;-67
2022/03/21 01:46:51;;;;;;;28.67;12.53;;;-1.20;1.00;;;;;;4333139;28;657432;-67
2022/03/21 01:49:40;;;;;;;38.07;14.37;;;-1.20;1.00;;;;;;4355228;28;658155;-67
2022/03/21 01:52:27;;;;;;;34.10;13.70;;;-1.20;1.00;;;;;;4326146;28;659405;-67
2022/03/21 01:58:21;;;;;;;32.90;12.17;;;-1.40;1.00;;;;;;4327874;28;657538;-66
2022/03/21 02:01:10;;;;;;;35.43;12.33;;;-1.40;1.00;;;;;;4348879;28;658834;-67
2022/03/21 02:03:58;;;;;;;34.57;13.00;;;-1.50;1.00;;;;;;4329446;28;657858;-66
2022/03/21 02:06:46;;;;;;;30.57;12.13;;;-1.60;1.00;;;;;;4329116;28;657537;-66
2022/03/21 02:09:33;;;;;;;34.17;12.90;;;-1.60;1.00;;;;;;4347715;28;657827;-66
2022/03/21 02:12:21;;;;;;;28.37;11.57;;;-1.60;1.00;;;;;;4318087;28;657611;-66
2022/03/21 02:15:10;;;;;;;27.50;11.33;;;-1.70;1.00;;;;;;4343830;28;658647;-66
2022/03/21 02:18:01;;;;;;;23.95;10.20;;;-1.70;1.00;;;;;;4329624;28;658432;-66
2022/03/21 02:20:48;;;;;;;24.03;10.53;;;-1.60;1.00;;;;;;4326829;28;658847;-66
2022/03/21 02:23:48;;;;;;;24.03;10.37;;;-1.50;1.00;;;;;;4332209;28;657224;-66
2022/03/21 02:26:37;;;;;;;24.63;10.73;;;-1.40;1.00;;;;;;4312016;28;658294;-66
2022/03/21 02:29:25;;;;;;;28.55;11.23;;;-1.30;1.00;;;;;;4348592;28;657961;-66
2022/03/21 02:32:13;;;;;;;25.77;10.50;;;-1.30;1.00;;;;;;4322277;28;659040;-67
2022/03/21 02:35:00;;;;;;;22.27;10.00;;;-1.40;1.00;;;;;;4335913;28;657953;-67
2022/03/21 02:37:48;;;;;;;35.37;11.47;;;-1.50;1.00;;;;;;4352132;28;659251;-66
2022/03/21 02:40:36;;;;;;;27.05;10.25;;;-1.60;1.00;;;;;;4323261;28;658339;-66
2022/03/21 02:43:24;;;;;;;20.17;9.30;;;-1.70;1.00;;;;;;4352072;28;658556;-67
2022/03/21 02:46:12;;;;;;;27.53;10.83;;;-1.70;1.00;;;;;;4327954;28;657153;-66
2022/03/21 02:48:59;;;;;;;23.53;10.83;;;-1.70;1.00;;;;;;4342668;28;658051;-66
2022/03/21 02:51:47;;;;;;;24.40;9.73;;;-1.80;1.00;;;;;;4325395;28;658470;-67
2022/03/21 02:54:35;;;;;;;19.70;9.65;;;-1.70;1.00;;;;;;4354839;28;656270;-67
2022/03/21 02:57:22;;;;;;;27.93;10.57;;;-1.70;1.00;;;;;;4326414;28;657477;-66
2022/03/21 03:00:13;;;;;;;29.27;9.47;;;-1.80;1.00;;;;;;4350538;28;658109;-66
2022/03/21 03:03:00;;;;;;;24.97;9.67;;;-1.90;1.00;;;;;;4311131;28;657032;-66
2022/03/21 03:05:48;;;;;;;24.03;9.93;;;-1.90;1.00;;;;;;4349600;28;657829;-66
2022/03/21 03:08:36;;;;;;;24.63;10.10;;;-2.00;1.00;;;;;;4332578;28;656404;-66
2022/03/21 03:11:23;;;;;;;21.17;9.80;;;-2.10;1.00;;;;;;4352923;28;658584;-66
2022/03/21 03:14:11;;;;;;;24.90;9.87;;;-2.20;1.00;;;;;;4330865;28;656414;-66
2022/03/21 03:17:01;;;;;;;25.33;10.57;;;-2.30;1.00;;;;;;4347658;28;657240;-66
2022/03/21 03:19:48;;;;;;;24.40;9.87;;;-2.40;1.00;;;;;;4324273;28;658480;-65
2022/03/21 03:22:36;;;;;;;26.63;9.97;;;-2.40;1.00;;;;;;4331753;28;656318;-65
2022/03/21 03:25:23;;;;;;;25.10;9.57;;;-2.50;1.00;;;;;;4359292;28;657174;-65
2022/03/21 03:28:11;;;;;;;26.63;10.73;;;-2.50;1.00;;;;;;4331793;28;656369;-66
2022/03/21 03:30:59;;;;;;;29.70;10.13;;;-2.60;1.00;;;;;;4356253;28;658087;-66
2022/03/21 03:33:48;;;;;;;28.17;10.67;;;-2.60;1.00;;;;;;4333152;28;657993;-65
2022/03/21 03:36:36;;;;;;;23.83;9.98;;;-2.60;1.00;;;;;;4334167;28;657715;-65
2022/03/21 03:39:23;;;;;;;23.07;10.20;;;-2.70;1.00;;;;;;4349142;28;657144;-66
2022/03/21 03:42:11;;;;;;;23.37;9.60;;;-2.80;1.00;;;;;;4328875;28;657695;-65
2022/03/21 03:44:58;;;;;;;22.97;10.17;;;-2.80;1.00;;;;;;4351648;28;658425;-65
2022/03/21 03:47:46;;;;;;;27.70;10.87;;;-2.80;1.00;;;;;;4327884;28;657521;-65
2022/03/21 03:50:34;;;;;;;27.17;9.70;;;-2.80;1.00;;;;;;4357919;28;658575;-65
2022/03/21 03:53:22;;;;;;;22.37;10.10;;;-2.70;1.00;;;;;;4325129;28;657662;-65
2022/03/21 03:56:10;;;;;;;22.73;10.13;;;-2.60;1.00;;;;;;4355365;28;657945;-65
2022/03/21 03:58:57;;;;;;;25.27;10.27;;;-2.60;1.00;;;;;;4332333;28;659106;-65
2022/03/21 04:01:45;;;;;;;27.30;10.10;;;-2.60;1.00;;;;;;4356908;28;657669;-65
2022/03/21 04:04:32;;;;;;;24.20;10.40;;;-2.70;1.00;;;;;;4328670;28;658456;-65
2022/03/21 04:07:23;;;;;;;27.63;10.63;;;-2.70;1.00;;;;;;4354738;28;657875;-65
2022/03/21 04:10:10;;;;;;;26.40;10.57;;;-2.70;1.00;;;;;;4317786;28;657827;-65
2022/03/21 04:12:58;;;;;;;29.13;10.93;;;-2.80;1.00;;;;;;4340258;28;658424;-65
2022/03/21 04:15:45;;;;;;;24.43;10.13;;;-2.70;1.00;;;;;;4343902;28;657922;-66
2022/03/21 04:18:33;;;;;;;24.17;10.10;;;-2.80;1.00;;;;;;4354964;28;658231;-65
2022/03/21 04:21:20;;;;;;;26.73;9.77;;;-2.80;1.00;;;;;;4341071;28;657655;-65
2022/03/21 04:24:09;;;;;;;26.40;10.73;;;-2.70;1.00;;;;;;4357350;28;657799;-65
2022/03/21 04:26:57;;;;;;;27.17;10.90;;;-2.80;1.00;;;;;;4339263;28;658090;-65
2022/03/21 04:29:44;;;;;;;22.50;10.20;;;-2.80;1.00;;;;;;4346716;28;657867;-65
2022/03/21 04:32:32;;;;;;;28.47;11.37;;;-2.80;1.00;;;;;;4339142;28;657918;-65
2022/03/21 04:36:02;;;;;;;27.00;11.03;;;-2.80;1.00;;;;;;4344783;28;657909;-65
2022/03/21 04:38:50;;;;;;;26.17;10.83;;;-2.80;1.00;;;;;;4322192;28;658115;-64
2022/03/21 04:41:38;;;;;;;29.33;12.43;;;-2.70;1.00;;;;;;4336473;28;658684;-64
2022/03/21 04:44:26;;;;;;;28.87;11.80;;;-2.70;1.00;;;;;;4339513;28;657257;-64
2022/03/21 04:47:13;;;;;;;29.27;12.03;;;-2.60;1.00;;;;;;4362328;28;657996;-64
2022/03/21 04:50:01;;;;;;;33.80;13.30;;;-2.60;1.00;;;;;;4341987;28;657948;-65
2022/03/21 04:52:48;;;;;;;33.87;12.33;;;-2.50;1.00;;;;;;4347530;28;658012;-65
2022/03/21 04:55:36;;;;;;;30.03;12.07;;;-2.40;1.00;;;;;;4330263;28;658825;-65
2022/03/21 04:58:24;;;;;;;27.77;11.80;;;-2.40;1.00;;;;;;4350447;28;658800;-64
2022/03/21 05:01:12;;;;;;;30.10;11.83;;;-2.40;1.00;;;;;;4335780;28;658255;-64
2022/03/21 05:04:00;;;;;;;28.73;12.13;;;-2.50;1.00;;;;;;4351561;28;657723;-64
2022/03/21 05:06:47;;;;;;;31.40;12.37;;;-2.50;1.00;;;;;;4321732;28;659230;-64
2022/03/21 05:09:35;;;;;;;29.67;12.03;;;-2.40;1.00;;;;;;4351694;28;658415;-64
2022/03/21 05:12:22;;;;;;;34.23;12.50;;;-2.40;1.00;;;;;;4321512;28;658400;-64
2022/03/21 05:15:12;;;;;;;32.60;12.43;;;-2.40;1.00;;;;;;4341661;28;657550;-64
2022/03/21 05:17:59;;;;;;;35.17;12.23;;;-2.40;1.00;;;;;;4343788;28;658437;-64
2022/03/21 05:20:47;;;;;;;31.03;12.37;;;-2.40;1.00;;;;;;4334559;28;659187;-65
2022/03/21 05:35:52;;;;;;;51.53;18.27;;;-2.20;1.00;;;;;;4249687;29;657489;-65
2022/03/21 05:35:57;;;;;;;71.17;24.63;;;-2.10;1.00;;;;;;4240910;29;658016;-65
2022/03/21 05:38:44;;;;;;;73.63;26.20;;;-2.00;1.00;;;;;;4269198;29;658180;-64
2022/03/21 05:41:32;;;;;;;62.80;21.23;;;-1.80;1.00;;;;;;4255523;29;657602;-65
2022/03/21 05:44:19;;;;;;;52.03;19.47;;;-1.70;1.00;;;;;;4271198;29;657174;-65
2022/03/21 05:47:07;;;;;;;44.10;18.13;;;-1.50;1.00;;;;;;4254657;29;657686;-65
2022/03/21 05:49:55;;;;;;;47.77;19.20;;;-1.40;1.00;;;;;;4273152;29;658384;-65
2022/03/21 05:52:42;;;;;;;49.95;18.15;;;-1.20;1.00;;;;;;4256386;29;658451;-65
2022/03/21 05:55:32;;;;;;;47.40;17.23;;;-0.90;1.00;;;;;;4263544;29;657464;-65
2022/03/21 05:58:19;;;;;;;38.13;16.53;;;-0.70;1.00;;;;;;4272679;29;658077;-65
2022/03/21 06:01:07;;;;;;;42.00;17.17;;;-0.50;1.00;;;;;;4253813;29;657537;-65
2022/03/21 06:03:55;;;;;;;38.47;15.43;;;-0.20;1.00;;;;;;4272910;29;658056;-64
2022/03/21 06:06:44;;;;;;;41.88;16.95;;;0.00;1.00;;;;;;4255676;29;658775;-64
2022/03/21 06:09:32;;;;;;;50.60;17.20;;;0.20;1.00;;;;;;4252013;29;656357;-65
2022/03/21 06:12:20;;;;;;;43.10;17.30;;;0.50;1.00;;;;;;4278634;29;656091;-65
2022/03/21 06:15:08;;;;;;;44.93;18.07;;;0.70;1.00;;;;;;4325082;28;657560;-65
2022/03/21 06:17:59;;;;;;;49.27;18.43;;;0.90;1.00;;;;;;4329543;28;657108;-65
2022/03/21 06:20:46;;;;;;;47.60;18.27;;;1.00;1.00;;;;;;4329873;28;656492;-65
2022/03/21 06:23:35;;;;;;;44.67;18.23;;;1.10;1.00;;;;;;4351059;28;657588;-65
2022/03/21 06:26:23;;;;;;;48.67;18.10;;;1.30;1.00;;;;;;4329142;28;657139;-65
2022/03/21 06:29:11;;;;;;;46.00;18.60;;;1.30;1.00;;;;;;4331663;28;656519;-65
2022/03/21 06:31:58;;;;;;;38.07;17.77;;;1.40;1.00;;;;;;4353229;28;657650;-65
2022/03/21 06:34:46;;;;;;;43.30;18.30;;;1.50;1.00;;;;;;4335225;28;656567;-65
2022/03/21 06:37:33;;;;;;;44.08;18.23;;;1.60;1.00;;;;;;4350939;28;656130;-65
2022/03/21 06:40:23;;;;;;;40.83;17.93;;;1.80;1.00;;;;;;4331120;28;656504;-65
2022/03/21 06:43:11;;;;;;;33.97;13.20;;;2.00;1.00;;;;;;4326987;28;656498;-65
2022/03/21 06:45:58;;;;;;;35.53;14.87;;;2.40;1.00;;;;;;4345008;28;657419;-65
2022/03/21 06:48:46;;;;;;;28.17;12.80;;;2.60;1.00;;;;;;4330348;28;656873;-65
2022/03/21 06:51:34;;;;;;;31.87;14.17;;;2.90;1.00;;;;;;4354933;28;657661;-65
2022/03/21 06:54:21;;;;;;;34.63;14.30;;;3.20;1.00;;;;;;4332339;28;657111;-65
2022/03/21 06:57:10;;;;;;;35.13;15.40;;;3.30;1.00;;;;;;4352865;28;657815;-65
2022/03/21 06:59:58;;;;;;;26.27;11.70;;;3.60;1.00;;;;;;4328096;28;656872;-65
2022/03/21 07:02:45;;;;;;;35.57;14.57;;;3.80;1.00;;;;;;4345536;28;656650;-65
2022/03/21 07:05:33;;;;;;;27.33;12.60;;;4.00;1.00;;;;;;4359475;28;657903;-65
2022/03/21 07:08:20;;;;;;;31.27;13.33;;;4.20;1.00;;;;;;4335139;28;656527;-65
2022/03/21 07:11:12;;;;;;;36.17;13.77;;;4.40;1.00;;;;;;4347893;28;657913;-65
2022/03/21 07:14:01;;;;;;;29.88;13.20;;;4.60;1.00;;;;;;4329633;28;657415;-65
2022/03/21 07:16:48;;;;;;;31.27;13.33;;;4.80;1.00;;;;;;4334602;28;657120;-65
2022/03/21 07:19:36;;;;;;;27.23;12.93;;;5.00;1.00;;;;;;4331043;28;656504;-65
2022/03/21 07:22:23;;;;;;;24.23;11.87;;;5.20;1.00;;;;;;4352838;28;657169;-65
2022/03/21 07:25:11;;;;;;;28.17;12.67;;;5.40;1.00;;;;;;4334058;28;656948;-65
2022/03/21 07:27:58;;;;;;;25.50;11.50;;;5.50;1.00;;;;;;4348112;28;657437;-65
2022/03/21 07:30:48;;;;;;;26.87;12.17;;;5.70;1.00;;;;;;4333432;28;657055;-65
2022/03/21 07:33:35;;;;;;;29.07;12.40;;;5.90;1.00;;;;;;4346982;28;656618;-65
2022/03/21 07:36:23;;;;;;;23.73;12.30;;;6.00;1.00;;;;;;4351548;28;657364;-65
2022/03/21 07:39:12;;;;;;;26.70;12.70;;;6.20;1.00;;;;;;4335563;28;657069;-65
2022/03/21 07:42:01;;;;;;;24.33;12.13;;;6.50;1.00;;;;;;4347140;28;656632;-65
2022/03/21 07:47:57;;;;;;;28.37;12.80;;;6.80;1.00;;;;;;4267604;29;657302;-65
2022/03/21 07:50:45;;;;;;;23.43;12.17;;;6.90;1.00;;;;;;4293820;29;656324;-66
2022/03/21 07:53:33;;;;;;;25.37;12.53;;;7.00;1.00;;;;;;4301867;29;657368;-65
2022/03/21 07:56:20;;;;;;;27.93;13.30;;;7.10;1.00;;;;;;4281605;29;657109;-65
2022/03/21 07:59:08;;;;;;;22.93;11.70;;;7.30;1.00;;;;;;4299911;29;657400;-65
2022/03/21 08:01:57;;;;;;;21.73;11.17;;;7.50;1.00;;;;;;4279826;29;656832;-65
2022/03/21 08:04:47;;;;;;;23.55;12.27;;;7.50;1.00;;;;;;4304497;29;656599;-65
2022/03/21 08:07:36;;;;;;;30.50;12.73;;;7.50;1.00;;;;;;4272755;29;656555;-65
2022/03/21 08:10:24;;;;;;;26.30;13.03;;;7.70;1.00;;;;;;4305609;29;656743;-65
2022/03/21 08:13:13;;;;;;;27.70;12.60;;;7.90;1.00;;;;;;4283632;29;657164;-65
2022/03/21 08:16:02;;;;;;;21.60;12.03;;;7.90;1.00;;;;;;4276609;29;656509;-65
2022/03/21 08:18:52;;;;;;;22.03;11.83;;;8.10;1.00;;;;;;4298454;29;657002;-66
2022/03/21 08:21:41;;;;;;;24.60;11.20;;;8.20;1.00;;;;;;4278820;29;657034;-65
2022/03/21 08:24:33;;;;;;;22.07;11.93;;;8.30;1.00;;;;;;4275407;29;657410;-65
2022/03/21 08:27:22;;;;;;;23.87;10.97;;;8.40;1.00;;;;;;4254522;29;657040;-65
2022/03/21 08:30:10;;;;;;;21.17;11.53;;;8.50;1.00;;;;;;4334758;28;657209;-65
2022/03/21 08:32:58;;;;;;;21.37;10.87;;;8.70;1.00;;;;;;4310937;28;658129;-65
2022/03/21 08:35:46;;;;;;;22.60;11.30;;;9.00;1.00;;;;;;4312163;28;656202;-65
2022/03/21 08:38:35;;;;;;;25.87;12.13;;;9.10;1.00;;;;;;4336658;28;656410;-66
2022/03/21 08:41:22;;;;;;;29.60;12.60;;;9.30;1.00;;;;;;4311168;28;657374;-65
2022/03/21 08:44:10;;;;;;;27.33;12.07;;;9.40;1.00;;;;;;4330359;28;657401;-66
2022/03/21 08:46:58;;;;;;;23.37;12.17;;;9.70;1.00;;;;;;4316548;28;658031;-65
2022/03/21 08:49:45;;;;;;;30.47;12.40;;;9.80;1.00;;;;;;4326452;28;656624;-65
2022/03/21 08:52:33;;;;;;;24.30;12.57;;;10.00;1.00;;;;;;4328424;28;657770;-66
2022/03/21 08:55:22;;;;;;;25.47;13.30;;;10.20;1.00;;;;;;4307778;28;657609;-66
2022/03/21 08:58:09;;;;;;;25.87;12.47;;;10.40;1.00;;;;;;4338650;28;658010;-66
2022/03/21 09:00:57;;;;;;;22.63;10.80;;;10.60;1.00;;;;;;4312760;28;657952;-66
2022/03/21 09:03:44;;;;;;;26.13;13.10;;;10.70;1.00;;;;;;4333630;28;657855;-66
2022/03/21 09:06:32;;;;;;;28.27;12.40;;;10.90;1.00;;;;;;4306856;28;657774;-66
2022/03/21 09:09:20;;;;;;;24.20;13.27;;;11.10;1.00;;;;;;4343064;28;657204;-66
2022/03/21 09:12:10;;;;;;;23.40;11.50;;;11.30;1.00;;;;;;4321338;28;658741;-66
2022/03/21 09:14:59;;;;;;;25.70;12.20;;;11.40;1.00;;;;;;4331154;28;658538;-66
2022/03/21 09:17:46;;;;;;;21.90;11.17;;;11.40;1.00;;;;;;4329621;28;657370;-66
2022/03/21 09:20:34;;;;;;;25.33;11.63;;;11.50;1.00;;;;;;4362402;28;658905;-66
2022/03/21 09:23:21;;;;;;;25.17;11.20;;;11.50;1.00;;;;;;4332320;28;657667;-66
2022/03/21 09:26:10;;;;;;;27.80;10.57;;;11.60;1.00;;;;;;4356452;28;658558;-66
2022/03/21 09:29:03;;;;;;;26.27;10.87;;;11.80;1.00;;;;;;4329265;28;659101;-66
2022/03/21 09:31:51;;;;;;;24.37;10.57;;;12.10;1.00;;;;;;4324290;28;657379;-66
2022/03/21 09:34:39;;;;;;;21.33;10.27;;;12.20;1.00;;;;;;4342960;28;659110;-66
2022/03/21 09:37:27;;;;;;;21.63;9.33;;;12.30;1.00;;;;;;4339555;28;658676;-66
2022/03/21 09:40:17;;;;;;;20.00;8.00;;;12.20;1.00;;;;;;4344236;28;656176;-66
2022/03/21 09:43:05;;;;;;;20.47;9.83;;;12.10;1.00;;;;;;4338252;28;656700;-66
2022/03/21 09:45:56;;;;;;;26.25;10.05;;;12.10;1.00;;;;;;4329811;28;656933;-66
2022/03/21 09:48:45;;;;;;;20.50;9.20;;;12.30;1.00;;;;;;4321288;28;658939;-66
2022/03/21 09:51:33;;;;;;;19.47;8.73;;;12.40;1.00;;;;;;4332787;28;657321;-66
2022/03/21 09:54:21;;;;;;;21.30;9.43;;;12.70;1.00;;;;;;4338333;28;656590;-66
2022/03/21 09:57:08;;;;;;;16.33;8.90;;;12.50;1.00;;;;;;4371382;28;657241;-66
2022/03/21 09:59:57;;;;;;;22.37;9.07;;;12.80;1.00;;;;;;4328374;28;656698;-66
2022/03/21 10:02:46;;;;;;;15.77;9.23;;;13.00;1.00;;;;;;4346641;28;656574;-66
2022/03/21 10:05:34;;;;;;;21.17;9.87;;;13.30;1.00;;;;;;4332914;28;657055;-66
2022/03/21 10:08:23;;;;;;;23.07;9.77;;;13.10;1.00;;;;;;4330289;28;657082;-66
2022/03/21 10:11:11;;;;;;;19.80;8.82;;;13.00;1.00;;;;;;4337063;28;657117;-66
2022/03/21 10:14:00;;;;;;;16.80;8.30;;;13.30;1.00;;;;;;4349167;28;657093;-66
2022/03/21 10:16:51;;;;;;;21.23;8.70;;;13.60;1.00;;;;;;4333898;28;658214;-66
2022/03/21 10:19:47;;;;;;;19.63;9.20;;;13.90;1.00;;;;;;4332080;28;657344;-66
2022/03/21 10:22:43;;;;;;;20.90;8.53;;;14.00;1.00;;;;;;4330086;28;656721;-64
2022/03/21 10:25:31;;;;;;;16.83;8.23;;;14.20;1.00;;;;;;4327787;28;657417;-66
2022/03/21 10:28:35;;;;;;;13.13;6.77;;;14.50;1.00;;;;;;4346330;28;657434;-64
2022/03/21 10:31:35;;;;;;;15.07;7.30;;;14.70;1.00;;;;;;4304435;28;658193;-66
2022/03/21 10:34:29;;;;;;;16.40;7.73;;;14.70;1.00;;;;;;4332148;28;656590;-66
2022/03/21 10:37:19;;;;;;;14.93;7.33;;;14.90;1.00;;;;;;4311409;28;657964;-64
2022/03/21 10:40:16;;;;;;;18.60;9.10;;;14.60;1.00;;;;;;4331002;28;658903;-66
2022/03/21 10:43:05;;;;;;;18.17;9.20;;;14.70;1.00;;;;;;4328775;28;657275;-64
2022/03/21 10:45:54;;;;;;;16.37;8.17;;;14.90;1.00;;;;;;4327207;28;657390;-64
2022/03/21 10:48:43;;;;;;;22.55;8.55;;;15.10;1.00;;;;;;4328911;28;656828;-66
2022/03/21 10:51:53;;;;;;;20.23;8.67;;;15.40;1.00;;;;;;4338851;28;656684;-66
2022/03/21 10:54:48;;;;;;;16.67;8.17;;;15.10;1.00;;;;;;4309004;28;656473;-64
2022/03/21 10:57:36;;;;;;;19.43;9.83;;;15.20;1.00;;;;;;4315671;28;657114;-66
2022/03/21 11:00:26;;;;;;;22.03;8.17;;;15.50;1.00;;;;;;4346376;28;656942;-64
2022/03/21 11:03:15;;;;;;;24.37;9.30;;;15.70;1.00;;;;;;4328790;28;657172;-66
2022/03/21 11:06:03;;;;;;;16.40;9.20;;;15.80;1.00;;;;;;4335929;28;657367;-66
2022/03/21 11:12:42;;;;;;;15.83;8.40;;;16.40;1.00;;;;;;4323907;28;656744;-66
2022/03/21 11:15:30;;;;;;;16.23;8.00;;;16.40;99.90;;;;;;4331087;28;657157;-64
2022/03/21 11:18:17;;;;;;;14.90;8.10;;;16.60;99.90;;;;;;4326180;28;659328;-64
2022/03/21 11:21:05;;;;;;;18.00;8.63;;;16.40;99.90;;;;;;4349545;28;657928;-66
2022/03/21 11:23:52;;;;;;;19.67;8.13;;;16.20;99.90;;;;;;4325076;28;659618;-66
2022/03/21 11:26:43;;;;;;;17.50;8.20;;;16.20;99.90;;;;;;4346857;28;657165;-66
2022/03/21 11:29:39;;;;;;;16.53;9.07;;;16.60;99.90;;;;;;4299651;28;658593;-66
2022/03/21 11:32:33;;;;;;;15.87;9.20;;;16.90;99.90;;;;;;4305358;28;659045;-66
2022/03/21 11:35:25;;;;;;;19.40;9.20;;;17.20;99.90;;;;;;4306948;28;658276;-66
2022/03/21 11:38:25;;;;;;;17.00;10.20;;;17.50;99.90;;;;;;4327005;28;659275;-66
2022/03/21 11:41:18;;;;;;;18.00;9.60;;;17.30;99.90;;;;;;4301117;28;659585;-66
2022/03/21 11:44:14;;;;;;;20.63;10.20;;;17.10;99.90;;;;;;4308999;28;657851;-66
2022/03/21 11:47:24;;;;;;;17.77;9.20;;;17.20;99.90;;;;;;4300675;28;659342;-66
2022/03/21 11:50:25;;;;;;;22.13;9.67;;;17.60;99.90;;;;;;4325483;28;657846;-66
2022/03/21 11:53:13;;;;;;;16.77;9.23;;;17.80;1.00;;;;;;4302775;28;657855;-66
2022/03/21 11:56:01;;;;;;;17.50;9.90;;;17.60;99.90;;;;;;4334565;28;656404;-67
2022/03/21 11:58:49;;;;;;;20.70;8.23;;;18.00;99.90;;;;;;4356471;28;659168;-66
2022/03/21 12:01:36;;;;;;;16.50;8.50;;;18.30;99.90;;;;;;4330997;28;657703;-66
2022/03/21 12:04:31;;;;;;;16.70;9.23;;;18.00;99.90;;;;;;4351868;28;658778;-67
2022/03/21 12:07:28;;;;;;;16.10;8.67;;;17.80;99.90;;;;;;4327089;28;657962;-66
2022/03/21 12:10:37;;;;;;;21.52;9.38;;;18.10;99.90;;;;;;4310147;28;658315;-66
2022/03/21 12:13:24;;;;;;;18.60;8.60;;;17.50;99.90;;;;;;4330880;28;658003;-66
2022/03/21 12:16:19;;;;;;;19.10;9.30;;;17.80;99.90;;;;;;4333116;28;657792;-66
2022/03/21 12:19:06;;;;;;;20.10;10.03;;;17.50;99.90;;;;;;4332281;28;658038;-66
2022/03/21 12:22:27;;;;;;;17.47;9.27;;;17.60;99.90;;;;;;4350214;28;660031;-66
2022/03/21 12:25:23;;;;;;;18.80;8.80;;;18.30;99.90;;;;;;4335019;28;658093;-66
2022/03/21 12:28:22;;;;;;;24.77;10.13;;;18.50;99.90;;;;;;4324592;28;657505;-67
2022/03/21 12:31:25;;;;;;;20.93;9.37;;;18.50;99.90;;;;;;4325392;28;658905;-66
2022/03/21 12:34:37;;;;;;;19.47;9.87;;;18.30;99.90;;;;;;4305686;28;658363;-66
2022/03/21 12:37:28;;;;;;;19.70;10.07;;;18.70;99.90;;;;;;4331732;28;657581;-66
2022/03/21 12:40:17;;;;;;;18.77;9.47;;;18.90;99.90;;;;;;4316387;28;658421;-67
2022/03/21 12:43:06;;;;;;;17.80;9.23;;;19.00;99.90;;;;;;4355344;28;657284;-66
2022/03/21 12:45:56;;;;;;;15.40;7.77;;;18.80;99.90;;;;;;4329429;28;658763;-66
2022/03/21 12:48:45;;;;;;;16.48;8.27;;;18.90;99.90;;;;;;4325354;28;657914;-66
2022/03/21 12:51:34;;;;;;;18.00;9.27;;;18.80;99.90;;;;;;4332184;28;659568;-66
2022/03/21 12:54:24;;;;;;;14.33;8.50;;;18.80;99.90;;;;;;4330349;28;657593;-66
2022/03/21 12:57:11;;;;;;;16.27;8.83;;;19.20;99.90;;;;;;4327700;28;657596;-66
2022/03/21 13:00:18;;;;;;;21.23;10.50;;;19.30;99.90;;;;;;4351268;28;658241;-67
2022/03/21 13:03:05;;;;;;;15.77;9.03;;;19.60;99.90;;;;;;4320549;28;659070;-66
2022/03/21 13:12:03;;;;;;;16.50;7.87;;;19.30;99.90;;;;;;4332909;28;658421;-66
2022/03/21 13:14:51;;;;;;;14.03;8.20;;;19.00;99.90;;;;;;4325069;28;657824;-66
2022/03/21 13:17:51;;;;;;;17.40;8.07;;;18.60;99.90;;;;;;4356228;28;657929;-67
2022/03/21 13:20:41;;;;;;;16.50;8.23;;;18.60;99.90;;;;;;4326711;28;657924;-66
2022/03/21 13:23:28;;;;;;;17.70;8.63;;;18.90;99.90;;;;;;4331294;28;658305;-66
2022/03/21 13:26:17;;;;;;;13.47;8.00;;;19.30;99.90;;;;;;4334382;28;658006;-66
2022/03/21 13:29:09;;;;;;;15.90;8.40;;;19.70;99.90;;;;;;4352121;28;657243;-66
2022/03/21 13:31:56;;;;;;;13.37;7.83;;;19.10;99.90;;;;;;4330399;28;657946;-66
2022/03/21 13:34:50;;;;;;;13.00;7.53;;;19.40;99.90;;;;;;4352774;28;657728;-67
2022/03/21 13:37:38;;;;;;;15.47;8.83;;;19.50;99.90;;;;;;4327762;28;658405;-66
2022/03/21 13:40:27;;;;;;;15.10;9.33;;;20.00;99.90;;;;;;4338408;28;657806;-67
2022/03/21 13:43:19;;;;;;;16.87;9.00;;;20.30;99.90;;;;;;4353659;28;658369;-67
2022/03/21 13:46:07;;;;;;;15.47;8.13;;;20.60;99.90;;;;;;4306263;28;658151;-67
2022/03/21 13:48:54;;;;;;;16.80;7.73;;;20.80;99.90;;;;;;4353353;28;657309;-67
2022/03/21 13:51:45;;;;;;;12.70;7.30;;;20.90;99.90;;;;;;4323732;28;657504;-66
2022/03/21 13:54:47;;;;;;;16.10;8.27;;;21.10;99.90;;;;;;4333029;28;657924;-64
2022/03/21 13:57:46;;;;;;;17.43;7.83;;;20.90;99.90;;;;;;4347975;28;657185;-66
2022/03/21 14:00:35;;;;;;;13.43;8.03;;;21.20;99.90;;;;;;4330957;28;658319;-67
2022/03/21 14:03:34;;;;;;;16.00;9.10;;;21.70;99.90;;;;;;4333163;28;658879;-67
2022/03/21 14:06:22;;;;;;;17.20;8.97;;;21.80;99.90;;;;;;4333346;28;657835;-64
2022/03/21 14:09:14;;;;;;;15.43;8.87;;;22.30;99.90;;;;;;4349885;28;658868;-67
2022/03/21 14:12:03;;;;;;;16.20;9.60;;;22.30;99.90;;;;;;4339906;28;657593;-67
2022/03/21 14:14:51;;;;;;;16.87;10.30;;;23.00;99.90;;;;;;4334838;28;657315;-67
2022/03/21 14:17:39;;;;;;;19.30;11.40;;;23.60;99.90;;;;;;4355188;28;658551;-67
2022/03/21 14:20:26;;;;;;;23.73;12.43;;;23.70;99.90;;;;;;4333785;28;658624;-67
2022/03/21 14:23:14;;;;;;;24.20;13.23;;;24.30;99.90;;;;;;4352079;28;659747;-67
2022/03/21 14:29:07;;;;;;;21.50;12.60;;;24.40;99.90;;;;;;4299637;28;659721;-67
2022/03/21 14:31:55;;;;;;;26.27;13.40;;;23.60;99.90;;;;;;4349583;28;660026;-64
2022/03/21 14:34:43;;;;;;;23.40;13.87;;;24.40;99.90;;;;;;4348394;28;659521;-66
2022/03/21 14:37:30;;;;;;;22.43;12.93;;;24.90;99.90;;;;;;4332553;28;658533;-66
2022/03/21 14:40:18;;;;;;;24.57;13.73;;;24.80;99.90;;;;;;4355249;28;660056;-67
2022/03/21 14:43:07;;;;;;;27.20;13.70;;;25.30;99.90;;;;;;4331473;28;658278;-67
2022/03/21 14:45:55;;;;;;;24.37;14.07;;;25.50;99.90;;;;;;4348981;28;658800;-67
2022/03/21 14:48:42;;;;;;;25.53;14.37;;;25.70;99.90;;;;;;4331123;28;659569;-65
2022/03/21 14:51:33;;;;;;;24.03;12.93;;;25.70;99.90;;;;;;4352964;28;659053;-67